createdAt,value
2019-02-05T00:00:20.988Z,0.94
2019-02-05T00:01:20.972Z,0.91
2019-02-05T00:02:20.966Z,0.94
2019-02-05T00:03:20.978Z,0.98
2019-02-05T00:04:20.954Z,0.94
2019-02-05T00:05:20.932Z,0.88
2019-02-05T00:06:20.920Z,0.90
2019-02-05T00:07:20.909Z,0.87
2019-02-05T00:08:20.900Z,0.75
2019-02-05T00:09:20.888Z,0.80
2019-02-05T00:10:20.878Z,0.84
2019-02-05T00:11:20.867Z,0.84
2019-02-05T00:12:20.860Z,0.76
2019-02-05T00:13:20.855Z,0.76
2019-02-05T00:14:20.834Z,0.73
2019-02-05T00:15:20.830Z,0.78
2019-02-05T00:16:20.831Z,0.70
2019-02-05T00:17:20.804Z,0.69
2019-02-05T00:18:20.792Z,0.72
2019-02-05T00:19:20.782Z,0.62
2019-02-05T00:20:20.775Z,0.62
2019-02-05T00:21:20.769Z,0.69
2019-02-05T00:22:20.756Z,0.61
2019-02-05T00:23:20.736Z,0.57
2019-02-05T00:24:20.733Z,0.66
2019-02-05T00:25:20.724Z,0.66
2019-02-05T00:26:20.716Z,0.66
2019-02-05T00:27:20.724Z,0.69
2019-02-05T00:28:20.684Z,0.62
2019-02-05T00:29:20.668Z,0.72
2019-02-05T00:30:20.671Z,0.61
2019-02-05T00:31:20.654Z,0.70
2019-02-05T00:32:20.648Z,0.60
2019-02-05T00:33:20.634Z,0.65
2019-02-05T00:34:20.624Z,0.65
2019-02-05T00:35:20.611Z,0.72
2019-02-05T00:36:20.599Z,0.76
2019-02-05T00:37:20.598Z,0.61
2019-02-05T00:38:20.590Z,0.66
2019-02-05T00:39:20.566Z,0.66
2019-02-05T00:40:20.559Z,0.65
2019-02-05T00:41:20.544Z,0.60
2019-02-05T00:42:20.538Z,0.62
2019-02-05T00:43:20.524Z,0.72
2019-02-05T00:44:20.510Z,0.62
2019-02-05T00:45:20.501Z,0.66
2019-02-05T00:46:20.488Z,0.62
2019-02-05T00:47:20.483Z,0.61
2019-02-05T00:48:20.474Z,0.53
2019-02-05T00:49:20.462Z,0.61
2019-02-05T00:50:20.454Z,0.66
2019-02-05T00:51:20.449Z,0.53
2019-02-05T00:52:20.432Z,0.61
2019-02-05T00:53:20.415Z,0.55
2019-02-05T00:54:20.414Z,0.58
2019-02-05T00:55:20.408Z,0.55
2019-02-05T00:56:20.386Z,0.57
2019-02-05T00:57:20.369Z,0.47
2019-02-05T00:58:20.364Z,0.49
2019-02-05T00:59:20.353Z,0.58
2019-02-05T01:00:20.351Z,0.53
2019-02-05T01:01:20.330Z,0.50
2019-02-05T01:02:20.323Z,0.50
2019-02-05T01:03:20.310Z,0.53
2019-02-05T01:04:20.300Z,0.50
2019-02-05T01:05:20.292Z,0.57
2019-02-05T01:06:20.284Z,0.50
2019-02-05T01:07:20.273Z,0.49
2019-02-05T01:08:20.266Z,0.51
2019-02-05T01:09:20.251Z,0.55
2019-02-05T01:10:20.247Z,0.53
2019-02-05T01:11:20.228Z,0.55
2019-02-05T01:12:20.221Z,0.60
2019-02-05T01:13:20.202Z,0.51
2019-02-05T01:14:20.195Z,0.66
2019-02-05T01:15:20.186Z,0.60
2019-02-05T01:16:20.177Z,0.62
2019-02-05T01:17:20.166Z,0.66
2019-02-05T01:18:20.158Z,0.69
2019-02-05T01:19:20.144Z,0.66
2019-02-05T01:20:20.126Z,0.60
2019-02-05T01:21:20.116Z,0.61
2019-02-05T01:22:20.110Z,0.62
2019-02-05T01:23:20.099Z,0.60
2019-02-05T01:24:20.088Z,0.62
2019-02-05T01:25:20.077Z,0.62
2019-02-05T01:26:28.901Z,0.65
2019-02-05T01:27:21.058Z,0.70
2019-02-05T01:28:20.048Z,0.69
2019-02-05T01:29:20.170Z,0.62
2019-02-05T01:30:20.022Z,0.65
2019-02-05T01:31:20.013Z,0.69
2019-02-05T01:32:20.006Z,0.75
2019-02-05T01:33:19.994Z,0.69
2019-02-05T01:34:19.984Z,0.70
2019-02-05T01:35:19.983Z,0.76
2019-02-05T01:36:19.964Z,0.62
2019-02-05T01:37:19.952Z,0.68
2019-02-05T01:38:19.936Z,0.73
2019-02-05T01:39:19.930Z,0.76
2019-02-05T01:40:19.927Z,0.73
2019-02-05T01:41:19.902Z,0.75
2019-02-05T01:42:19.898Z,0.76
2019-02-05T01:43:19.888Z,0.78
2019-02-05T01:44:19.880Z,0.72
2019-02-05T01:45:19.862Z,0.76
2019-02-05T01:46:19.860Z,0.70
2019-02-05T01:47:19.844Z,0.75
2019-02-05T01:48:19.829Z,0.72
2019-02-05T01:49:19.822Z,0.78
2019-02-05T01:50:19.822Z,0.72
2019-02-05T01:51:19.804Z,0.75
2019-02-05T01:52:19.794Z,0.70
2019-02-05T01:53:19.772Z,0.73
2019-02-05T01:54:19.770Z,0.73
2019-02-05T01:55:19.768Z,0.78
2019-02-05T01:56:19.752Z,0.73
2019-02-05T01:57:19.748Z,0.80
2019-02-05T01:58:19.738Z,0.75
2019-02-05T01:59:19.723Z,0.76
2019-02-05T02:00:19.706Z,0.69
2019-02-05T02:01:19.706Z,0.73
2019-02-05T02:02:19.684Z,0.70
2019-02-05T02:03:19.674Z,0.80
2019-02-05T02:04:19.660Z,0.68
2019-02-05T02:05:19.650Z,0.68
2019-02-05T02:06:19.646Z,0.70
2019-02-05T02:07:19.642Z,0.72
2019-02-05T02:08:19.621Z,0.76
2019-02-05T02:09:19.618Z,0.69
2019-02-05T02:10:19.600Z,0.73
2019-02-05T02:11:19.582Z,0.73
2019-02-05T02:12:19.578Z,0.72
2019-02-05T02:13:19.570Z,0.75
2019-02-05T02:14:19.564Z,0.78
2019-02-05T02:15:19.560Z,0.73
2019-02-05T02:16:19.545Z,0.73
2019-02-05T02:17:19.522Z,0.78
2019-02-05T02:18:19.510Z,0.75
2019-02-05T02:19:19.503Z,0.72
2019-02-05T02:20:19.498Z,0.70
2019-02-05T02:21:19.506Z,0.75
2019-02-05T02:22:19.473Z,0.72
2019-02-05T02:23:19.458Z,0.76
2019-02-05T02:24:19.449Z,0.78
2019-02-05T02:25:19.446Z,0.70
2019-02-05T02:26:19.427Z,0.78
2019-02-05T02:27:19.421Z,0.76
2019-02-05T02:28:19.403Z,0.83
2019-02-05T02:29:19.395Z,0.84
2019-02-05T02:30:19.399Z,0.80
2019-02-05T02:31:19.378Z,0.80
2019-02-05T02:32:19.382Z,0.76
2019-02-05T02:33:19.364Z,0.80
2019-02-05T02:34:19.345Z,0.79
2019-02-05T02:35:19.333Z,0.83
2019-02-05T02:36:19.322Z,0.83
2019-02-05T02:37:19.318Z,0.73
2019-02-05T02:38:19.301Z,0.75
2019-02-05T02:39:19.294Z,0.79
2019-02-05T02:40:19.282Z,0.73
2019-02-05T02:41:19.272Z,0.80
2019-02-05T02:42:19.262Z,0.83
2019-02-05T02:43:19.261Z,0.84
2019-02-05T02:44:19.240Z,0.78
2019-02-05T02:45:19.226Z,0.84
2019-02-05T02:46:19.218Z,0.78
2019-02-05T02:47:19.214Z,0.76
2019-02-05T02:48:19.200Z,0.83
2019-02-05T02:49:19.189Z,0.79
2019-02-05T02:50:19.181Z,0.79
2019-02-05T02:51:19.162Z,0.75
2019-02-05T02:52:19.162Z,0.83
2019-02-05T02:53:19.146Z,0.79
2019-02-05T02:54:19.138Z,0.76
2019-02-05T02:55:19.136Z,0.84
2019-02-05T02:56:19.113Z,0.80
2019-02-05T02:57:19.102Z,0.79
2019-02-05T02:58:19.088Z,0.75
2019-02-05T02:59:19.084Z,0.75
2019-02-05T03:00:19.208Z,0.73
2019-02-05T03:01:19.074Z,0.84
2019-02-05T03:02:19.049Z,0.78
2019-02-05T03:03:19.042Z,0.86
2019-02-05T03:04:19.030Z,0.76
2019-02-05T03:05:19.020Z,0.87
2019-02-05T03:06:19.008Z,0.73
2019-02-05T03:07:19.000Z,0.86
2019-02-05T03:08:18.991Z,0.86
2019-02-05T03:09:18.974Z,0.83
2019-02-05T03:10:18.976Z,0.87
2019-02-05T03:11:18.957Z,0.91
2019-02-05T03:12:18.946Z,0.88
2019-02-05T03:13:18.933Z,0.91
2019-02-05T03:14:18.926Z,0.91
2019-02-05T03:15:18.907Z,0.96
2019-02-05T03:16:18.909Z,0.94
2019-02-05T03:17:18.898Z,0.93
2019-02-05T03:18:18.884Z,0.94
2019-02-05T03:19:18.874Z,0.90
2019-02-05T03:20:18.863Z,0.91
2019-02-05T03:21:18.853Z,0.94
2019-02-05T03:22:18.838Z,0.94
2019-02-05T03:23:18.835Z,0.96
2019-02-05T03:24:18.828Z,0.94
2019-02-05T03:25:18.828Z,0.97
2019-02-05T03:26:18.795Z,0.93
2019-02-05T03:27:18.789Z,1.00
2019-02-05T03:28:18.774Z,0.96
2019-02-05T03:29:18.766Z,0.98
2019-02-05T03:30:18.753Z,1.00
2019-02-05T03:31:18.740Z,0.93
2019-02-05T03:32:18.732Z,0.97
2019-02-05T03:33:18.733Z,1.09
2019-02-05T03:34:18.718Z,1.04
2019-02-05T03:35:18.710Z,1.04
2019-02-05T03:36:18.690Z,1.08
2019-02-05T03:37:18.684Z,1.08
2019-02-05T03:38:18.667Z,1.00
2019-02-05T03:39:18.658Z,1.02
2019-02-05T03:40:18.651Z,1.09
2019-02-05T03:41:18.634Z,1.09
2019-02-05T03:42:18.620Z,1.08
2019-02-05T03:43:18.686Z,1.02
2019-02-05T03:44:18.614Z,1.08
2019-02-05T03:45:18.591Z,1.16
2019-02-05T03:46:18.604Z,1.02
2019-02-05T03:47:18.596Z,1.20
2019-02-05T03:48:18.557Z,1.05
2019-02-05T03:49:18.545Z,1.04
2019-02-05T03:50:18.543Z,1.08
2019-02-05T03:51:18.527Z,1.06
2019-02-05T03:52:18.521Z,1.11
2019-02-05T03:53:18.505Z,1.11
2019-02-05T03:54:18.496Z,1.12
2019-02-05T03:55:18.488Z,1.14
2019-02-05T03:56:18.480Z,1.09
2019-02-05T03:57:30.466Z,1.08
2019-02-05T03:58:19.452Z,1.11
2019-02-05T03:59:18.440Z,1.11
2019-02-05T04:00:18.424Z,1.11
2019-02-05T04:01:18.424Z,1.14
2019-02-05T04:02:18.420Z,1.22
2019-02-05T04:03:18.397Z,1.12
2019-02-05T04:04:18.394Z,1.09
2019-02-05T04:05:18.374Z,1.20
2019-02-05T04:06:18.368Z,1.24
2019-02-05T04:07:18.360Z,1.22
2019-02-05T04:08:18.346Z,1.27
2019-02-05T04:09:18.340Z,1.20
2019-02-05T04:10:18.321Z,1.16
2019-02-05T04:11:18.313Z,1.22
2019-02-05T04:12:18.296Z,1.20
2019-02-05T04:13:18.293Z,1.23
2019-02-05T04:14:18.292Z,1.22
2019-02-05T04:15:18.276Z,1.20
2019-02-05T04:16:18.261Z,1.23
2019-02-05T04:17:18.244Z,1.20
2019-02-05T04:18:18.230Z,1.23
2019-02-05T04:19:18.226Z,1.15
2019-02-05T04:20:18.216Z,1.15
2019-02-05T04:21:18.203Z,1.09
2019-02-05T04:22:18.189Z,1.09
2019-02-05T04:23:18.179Z,1.16
2019-02-05T04:24:18.189Z,1.09
2019-02-05T04:25:18.166Z,1.08
2019-02-05T04:26:18.157Z,1.08
2019-02-05T04:27:18.137Z,1.12
2019-02-05T04:28:18.130Z,1.11
2019-02-05T04:29:18.116Z,1.06
2019-02-05T04:30:18.105Z,1.05
2019-02-05T04:31:18.092Z,1.05
2019-02-05T04:32:18.080Z,1.11
2019-02-05T04:33:18.069Z,1.04
2019-02-05T04:34:18.066Z,1.08
2019-02-05T04:35:18.057Z,1.11
2019-02-05T04:36:18.044Z,1.14
2019-02-05T04:37:18.037Z,1.11
2019-02-05T04:38:18.024Z,1.05
2019-02-05T04:39:18.011Z,0.90
2019-02-05T04:40:18.001Z,0.96
2019-02-05T04:41:18.002Z,0.98
2019-02-05T04:42:17.977Z,0.93
2019-02-05T04:43:17.970Z,0.93
2019-02-05T04:44:17.964Z,0.88
2019-02-05T04:45:17.942Z,0.87
2019-02-05T04:46:17.942Z,0.87
2019-02-05T04:47:17.934Z,0.86
2019-02-05T04:48:17.922Z,0.73
2019-02-05T04:49:17.925Z,0.83
2019-02-05T04:50:17.893Z,0.78
2019-02-05T04:51:17.875Z,0.76
2019-02-05T04:52:17.869Z,0.79
2019-02-05T04:53:17.866Z,0.78
2019-02-05T04:54:17.849Z,0.79
2019-02-05T04:55:17.834Z,0.75
2019-02-05T04:56:17.893Z,0.78
2019-02-05T04:57:17.813Z,0.75
2019-02-05T04:58:17.814Z,0.72
2019-02-05T04:59:17.797Z,0.73
2019-02-05T05:00:17.788Z,0.75
2019-02-05T05:01:17.781Z,0.70
2019-02-05T05:02:17.758Z,0.76
2019-02-05T05:03:17.765Z,0.76
2019-02-05T05:04:17.845Z,0.75
2019-02-05T05:05:17.736Z,0.87
2019-02-05T05:06:17.732Z,0.84
2019-02-05T05:07:17.714Z,0.76
2019-02-05T05:08:17.727Z,0.75
2019-02-05T05:09:17.688Z,0.87
2019-02-05T05:10:17.678Z,0.87
2019-02-05T05:11:17.665Z,0.88
2019-02-05T05:12:17.661Z,0.91
2019-02-05T05:13:17.649Z,0.91
2019-02-05T05:14:17.629Z,0.96
2019-02-05T05:15:17.623Z,0.94
2019-02-05T05:16:17.612Z,0.93
2019-02-05T05:17:17.611Z,1.02
2019-02-05T05:18:17.595Z,0.96
2019-02-05T05:19:17.576Z,1.02
2019-02-05T05:20:17.576Z,1.04
2019-02-05T05:21:17.688Z,0.94
2019-02-05T05:22:17.552Z,0.98
2019-02-05T05:23:17.554Z,0.97
2019-02-05T05:24:17.533Z,1.00
2019-02-05T05:25:17.516Z,0.98
2019-02-05T05:26:17.505Z,1.08
2019-02-05T05:27:17.496Z,1.05
2019-02-05T05:28:17.495Z,0.97
2019-02-05T05:29:17.480Z,1.00
2019-02-05T05:30:17.463Z,1.02
2019-02-05T05:31:17.455Z,0.94
2019-02-05T05:32:17.445Z,1.00
2019-02-05T05:33:17.427Z,1.05
2019-02-05T05:34:17.426Z,1.02
2019-02-05T05:35:17.407Z,1.04
2019-02-05T05:36:17.396Z,1.04
2019-02-05T05:37:17.394Z,1.05
2019-02-05T05:38:17.372Z,1.08
2019-02-05T05:39:17.377Z,1.08
2019-02-05T05:40:17.365Z,1.09
2019-02-05T05:41:17.341Z,1.09
2019-02-05T05:42:17.332Z,1.05
2019-02-05T05:43:17.318Z,1.09
2019-02-05T05:44:17.320Z,1.11
2019-02-05T05:45:17.316Z,1.04
2019-02-05T05:46:17.298Z,1.11
2019-02-05T05:47:17.347Z,1.09
2019-02-05T05:48:17.271Z,1.15
2019-02-05T05:49:17.266Z,1.15
2019-02-05T05:50:17.257Z,1.15
2019-02-05T05:51:17.243Z,1.12
2019-02-05T05:52:17.219Z,1.14
2019-02-05T05:53:17.256Z,1.18
2019-02-05T05:54:17.205Z,1.15
2019-02-05T05:55:17.190Z,1.06
2019-02-05T05:56:17.187Z,1.22
2019-02-05T05:57:18.821Z,1.20
2019-02-05T05:58:23.091Z,1.22
2019-02-05T05:59:18.152Z,1.12
2019-02-05T06:00:17.141Z,1.22
2019-02-05T06:01:17.128Z,1.15
2019-02-05T06:02:17.126Z,1.16
2019-02-05T06:03:17.106Z,1.16
2019-02-05T06:04:17.102Z,1.15
2019-02-05T06:05:17.083Z,1.18
2019-02-05T06:06:17.076Z,1.22
2019-02-05T06:07:17.069Z,1.26
2019-02-05T06:08:17.076Z,1.22
2019-02-05T06:09:17.045Z,1.20
2019-02-05T06:10:17.030Z,1.15
2019-02-05T06:11:17.019Z,1.27
2019-02-05T06:12:17.012Z,1.18
2019-02-05T06:13:17.004Z,1.23
2019-02-05T06:14:16.995Z,1.18
2019-02-05T06:15:16.977Z,1.27
2019-02-05T06:16:16.968Z,1.15
2019-02-05T06:17:16.958Z,1.16
2019-02-05T06:18:16.940Z,1.26
2019-02-05T06:19:16.934Z,1.20
2019-02-05T06:20:16.922Z,1.14
2019-02-05T06:21:16.919Z,1.24
2019-02-05T06:22:16.901Z,1.15
2019-02-05T06:23:16.900Z,1.22
2019-02-05T06:24:16.883Z,1.16
2019-02-05T06:25:16.899Z,1.20
2019-02-05T06:26:20.054Z,1.23
2019-02-05T06:27:16.854Z,1.22
2019-02-05T06:28:16.837Z,1.22
2019-02-05T06:29:16.831Z,1.26
2019-02-05T06:30:16.820Z,1.26
2019-02-05T06:31:16.814Z,1.27
2019-02-05T06:32:16.793Z,1.22
2019-02-05T06:33:16.789Z,1.24
2019-02-05T06:34:16.773Z,1.30
2019-02-05T06:35:16.769Z,1.29
2019-02-05T06:36:16.757Z,1.26
2019-02-05T06:37:16.746Z,1.24
2019-02-05T06:38:16.725Z,1.23
2019-02-05T06:39:16.716Z,1.36
2019-02-05T06:40:16.716Z,1.41
2019-02-05T06:41:16.694Z,1.45
2019-02-05T06:42:16.688Z,1.52
2019-02-05T06:43:16.676Z,1.59
2019-02-05T06:44:16.667Z,1.66
2019-02-05T06:45:16.655Z,1.65
2019-02-05T06:46:16.644Z,1.63
2019-02-05T06:47:16.641Z,1.66
2019-02-05T06:48:16.646Z,1.80
2019-02-05T06:49:16.620Z,1.87
2019-02-05T06:50:16.602Z,1.87
2019-02-05T06:51:16.591Z,1.86
2019-02-05T06:52:16.580Z,1.79
2019-02-05T06:53:16.586Z,1.70
2019-02-05T06:54:16.557Z,1.62
2019-02-05T06:55:16.547Z,1.50
2019-02-05T06:56:16.538Z,1.42
2019-02-05T06:57:16.532Z,1.36
2019-02-05T06:58:16.512Z,1.33
2019-02-05T06:59:16.502Z,1.45
2019-02-05T07:00:16.495Z,1.30
2019-02-05T07:01:16.485Z,1.41
2019-02-05T07:02:16.482Z,1.41
2019-02-05T07:03:16.461Z,1.37
2019-02-05T07:04:16.453Z,1.41
2019-02-05T07:05:16.446Z,1.40
2019-02-05T07:06:16.428Z,1.40
2019-02-05T07:07:16.420Z,1.45
2019-02-05T07:08:16.407Z,1.42
2019-02-05T07:09:16.396Z,1.44
2019-02-05T07:10:16.382Z,1.40
2019-02-05T07:11:16.380Z,1.47
2019-02-05T07:12:16.363Z,1.52
2019-02-05T07:13:16.355Z,1.50
2019-02-05T07:14:16.342Z,1.52
2019-02-05T07:15:16.334Z,1.48
2019-02-05T07:16:16.332Z,1.62
2019-02-05T07:17:16.314Z,1.54
2019-02-05T07:18:16.298Z,1.58
2019-02-05T07:19:16.294Z,1.50
2019-02-05T07:20:16.284Z,1.52
2019-02-05T07:21:16.271Z,1.69
2019-02-05T07:22:16.263Z,1.69
2019-02-05T07:23:16.265Z,1.58
2019-02-05T07:24:16.244Z,1.70
2019-02-05T07:25:16.232Z,1.70
2019-02-05T07:26:16.214Z,1.69
2019-02-05T07:27:16.202Z,1.68
2019-02-05T07:28:16.189Z,1.66
2019-02-05T07:29:16.188Z,1.72
2019-02-05T07:30:16.176Z,1.66
2019-02-05T07:31:16.166Z,1.70
2019-02-05T07:32:16.147Z,1.66
2019-02-05T07:33:16.142Z,1.72
2019-02-05T07:34:16.132Z,1.70
2019-02-05T07:35:16.115Z,1.72
2019-02-05T07:36:16.108Z,1.72
2019-02-05T07:37:16.103Z,1.79
2019-02-05T07:38:16.090Z,1.81
2019-02-05T07:39:16.082Z,1.81
2019-02-05T07:40:16.065Z,1.73
2019-02-05T07:41:16.056Z,1.81
2019-02-05T07:42:16.042Z,1.84
2019-02-05T07:43:16.034Z,1.87
2019-02-05T07:44:16.030Z,1.90
2019-02-05T07:45:16.014Z,1.93
2019-02-05T07:46:16.009Z,1.90
2019-02-05T07:47:15.989Z,1.88
2019-02-05T07:48:15.981Z,1.87
2019-02-05T07:49:15.970Z,1.86
2019-02-05T07:50:15.962Z,1.87
2019-02-05T07:51:15.946Z,1.90
2019-02-05T07:52:15.952Z,1.84
2019-02-05T07:53:15.926Z,1.86
2019-02-05T07:54:15.931Z,1.91
2019-02-05T07:55:15.904Z,1.90
2019-02-05T07:56:15.896Z,2.00
2019-02-05T07:57:15.882Z,2.02
2019-02-05T07:58:15.874Z,2.10
2019-02-05T07:59:15.880Z,2.10
2019-02-05T08:00:15.864Z,2.06
2019-02-05T08:01:17.699Z,2.16
2019-02-05T08:02:15.832Z,2.05
2019-02-05T08:03:15.831Z,2.12
2019-02-05T08:04:15.811Z,2.03
2019-02-05T08:05:15.800Z,2.06
2019-02-05T08:06:15.794Z,2.05
2019-02-05T08:07:15.790Z,2.14
2019-02-05T08:08:15.770Z,2.09
2019-02-05T08:09:15.774Z,2.21
2019-02-05T08:10:15.747Z,2.12
2019-02-05T08:11:15.750Z,2.20
2019-02-05T08:12:15.743Z,2.12
2019-02-05T08:13:15.716Z,2.14
2019-02-05T08:14:15.704Z,2.21
2019-02-05T08:15:15.692Z,2.17
2019-02-05T08:16:15.700Z,2.14
2019-02-05T08:17:15.689Z,2.07
2019-02-05T08:18:15.660Z,2.18
2019-02-05T08:19:15.658Z,2.24
2019-02-05T08:20:15.643Z,2.20
2019-02-05T08:21:15.631Z,2.28
2019-02-05T08:22:15.624Z,2.28
2019-02-05T08:23:15.616Z,2.30
2019-02-05T08:24:15.606Z,2.30
2019-02-05T08:25:15.594Z,2.30
2019-02-05T08:26:15.576Z,2.30
2019-02-05T08:27:15.572Z,2.28
2019-02-05T08:28:15.554Z,2.27
2019-02-05T08:29:21.803Z,2.34
2019-02-05T08:30:16.533Z,2.30
2019-02-05T08:31:15.544Z,2.38
2019-02-05T08:32:15.517Z,2.38
2019-02-05T08:33:15.510Z,2.34
2019-02-05T08:34:15.500Z,2.35
2019-02-05T08:35:15.498Z,2.35
2019-02-05T08:36:15.472Z,2.41
2019-02-05T08:37:15.463Z,2.48
2019-02-05T08:38:15.452Z,2.49
2019-02-05T08:39:17.903Z,2.41
2019-02-05T08:40:15.428Z,2.46
2019-02-05T08:41:15.427Z,2.43
2019-02-05T08:42:15.417Z,2.46
2019-02-05T08:43:15.392Z,2.52
2019-02-05T08:44:15.386Z,2.48
2019-02-05T08:45:15.377Z,2.48
2019-02-05T08:46:15.364Z,2.54
2019-02-05T08:47:15.365Z,2.53
2019-02-05T08:48:15.340Z,2.48
2019-02-05T08:49:15.335Z,2.57
2019-02-05T08:50:15.316Z,2.53
2019-02-05T08:51:15.309Z,2.59
2019-02-05T08:52:15.298Z,2.57
2019-02-05T08:53:15.301Z,2.52
2019-02-05T08:54:15.286Z,2.69
2019-02-05T08:55:15.266Z,2.67
2019-02-05T08:56:15.258Z,2.64
2019-02-05T08:57:15.258Z,2.74
2019-02-05T08:58:15.254Z,2.77
2019-02-05T08:59:15.235Z,2.71
2019-02-05T09:00:15.214Z,2.79
2019-02-05T09:01:15.212Z,2.84
2019-02-05T09:02:15.192Z,2.78
2019-02-05T09:03:15.193Z,2.85
2019-02-05T09:04:15.181Z,2.93
2019-02-05T09:05:15.171Z,2.89
2019-02-05T09:06:15.150Z,2.99
2019-02-05T09:07:15.146Z,2.89
2019-02-05T09:08:15.124Z,2.90
2019-02-05T09:09:15.122Z,2.95
2019-02-05T09:10:15.116Z,2.85
2019-02-05T09:11:15.095Z,2.99
2019-02-05T09:12:17.904Z,3.02
2019-02-05T09:13:15.074Z,2.84
2019-02-05T09:14:15.074Z,2.89
2019-02-05T09:15:15.058Z,2.87
2019-02-05T09:16:15.052Z,2.99
2019-02-05T09:17:15.034Z,3.00
2019-02-05T09:18:15.025Z,3.06
2019-02-05T09:19:15.008Z,2.96
2019-02-05T09:20:15.002Z,2.99
2019-02-05T09:21:15.004Z,2.89
2019-02-05T09:22:14.991Z,2.89
2019-02-05T09:23:14.970Z,3.05
2019-02-05T09:24:14.991Z,2.97
2019-02-05T09:25:14.950Z,2.97
2019-02-05T09:26:14.936Z,3.03
2019-02-05T09:27:14.939Z,3.06
2019-02-05T09:28:14.917Z,3.03
2019-02-05T09:29:14.908Z,3.05
2019-02-05T09:30:14.890Z,3.10
2019-02-05T09:31:14.884Z,3.10
2019-02-05T09:32:14.870Z,3.18
2019-02-05T09:33:14.864Z,3.17
2019-02-05T09:34:14.855Z,3.15
2019-02-05T09:35:14.836Z,3.18
2019-02-05T09:36:14.834Z,3.18
2019-02-05T09:37:14.820Z,3.17
2019-02-05T09:38:14.815Z,3.15
2019-02-05T09:39:14.813Z,3.17
2019-02-05T09:40:14.790Z,3.17
2019-02-05T09:41:14.775Z,3.15
2019-02-05T09:42:14.766Z,3.15
2019-02-05T09:43:14.767Z,3.17
2019-02-05T09:44:14.757Z,3.15
2019-02-05T09:45:14.730Z,3.21
2019-02-05T09:46:14.719Z,3.28
2019-02-05T09:47:14.718Z,3.24
2019-02-05T09:48:14.705Z,3.33
2019-02-05T09:49:14.688Z,3.21
2019-02-05T09:50:14.686Z,3.24
2019-02-05T09:51:14.668Z,3.32
2019-02-05T09:52:14.658Z,3.31
2019-02-05T09:53:14.642Z,3.29
2019-02-05T09:54:14.639Z,3.26
2019-02-05T09:55:14.630Z,3.26
2019-02-05T09:56:14.624Z,3.23
2019-02-05T09:57:14.679Z,3.26
2019-02-05T09:58:14.598Z,3.32
2019-02-05T09:59:14.576Z,3.26
2019-02-05T10:00:14.582Z,3.26
2019-02-05T10:01:14.562Z,3.32
2019-02-05T10:02:14.550Z,3.29
2019-02-05T10:03:14.542Z,3.39
2019-02-05T10:04:14.523Z,3.32
2019-02-05T10:05:14.520Z,3.42
2019-02-05T10:06:14.506Z,3.43
2019-02-05T10:07:14.503Z,3.51
2019-02-05T10:08:14.492Z,3.50
2019-02-05T10:09:14.472Z,3.50
2019-02-05T10:10:14.464Z,3.47
2019-02-05T10:11:14.574Z,3.54
2019-02-05T10:12:14.447Z,3.52
2019-02-05T10:13:14.448Z,3.52
2019-02-05T10:14:14.447Z,3.58
2019-02-05T10:15:14.414Z,3.62
2019-02-05T10:16:14.397Z,3.66
2019-02-05T10:17:14.385Z,3.68
2019-02-05T10:18:14.386Z,3.66
2019-02-05T10:19:14.374Z,3.70
2019-02-05T10:20:14.370Z,3.70
2019-02-05T10:21:14.344Z,3.58
2019-02-05T10:22:14.334Z,3.55
2019-02-05T10:23:14.328Z,3.57
2019-02-05T10:24:14.315Z,3.58
2019-02-05T10:25:14.305Z,3.48
2019-02-05T10:26:14.294Z,3.52
2019-02-05T10:27:14.282Z,3.58
2019-02-05T10:28:14.273Z,3.54
2019-02-05T10:29:14.264Z,3.58
2019-02-05T10:30:14.261Z,3.60
2019-02-05T10:31:14.238Z,3.58
2019-02-05T10:32:14.228Z,3.66
2019-02-05T10:33:14.218Z,3.65
2019-02-05T10:34:14.211Z,3.58
2019-02-05T10:35:14.202Z,3.60
2019-02-05T10:36:14.194Z,3.61
2019-02-05T10:37:14.181Z,3.55
2019-02-05T10:38:14.169Z,3.55
2019-02-05T10:39:14.161Z,3.60
2019-02-05T10:40:14.151Z,3.65
2019-02-05T10:41:14.138Z,3.58
2019-02-05T10:42:14.138Z,3.60
2019-02-05T10:43:14.112Z,3.55
2019-02-05T10:44:14.113Z,3.58
2019-02-05T10:45:14.102Z,3.58
2019-02-05T10:46:14.087Z,3.65
2019-02-05T10:47:14.141Z,3.60
2019-02-05T10:48:14.082Z,3.62
2019-02-05T10:49:14.053Z,3.62
2019-02-05T10:50:14.049Z,3.61
2019-02-05T10:51:14.036Z,3.57
2019-02-05T10:52:14.021Z,3.58
2019-02-05T10:53:14.017Z,3.55
2019-02-05T10:54:14.000Z,3.55
2019-02-05T10:55:13.997Z,3.58
2019-02-05T10:56:13.987Z,3.58
2019-02-05T10:57:13.962Z,3.50
2019-02-05T10:58:13.955Z,3.60
2019-02-05T10:59:13.953Z,3.54
2019-02-05T11:00:13.934Z,3.51
2019-02-05T11:01:13.922Z,3.48
2019-02-05T11:02:13.922Z,3.54
2019-02-05T11:03:13.904Z,3.62
2019-02-05T11:04:13.892Z,3.61
2019-02-05T11:05:13.905Z,3.62
2019-02-05T11:06:13.871Z,3.54
2019-02-05T11:07:13.858Z,3.57
2019-02-05T11:08:13.859Z,3.65
2019-02-05T11:09:13.842Z,3.55
2019-02-05T11:10:13.840Z,3.57
2019-02-05T11:11:13.816Z,3.62
2019-02-05T11:12:13.810Z,3.57
2019-02-05T11:13:13.796Z,3.73
2019-02-05T11:14:13.781Z,3.69
2019-02-05T11:15:13.778Z,3.80
2019-02-05T11:16:13.770Z,3.79
2019-02-05T11:17:13.763Z,3.68
2019-02-05T11:18:13.743Z,3.66
2019-02-05T11:19:13.730Z,3.78
2019-02-05T11:20:13.720Z,3.83
2019-02-05T11:21:13.710Z,3.78
2019-02-05T11:22:13.724Z,3.70
2019-02-05T11:23:13.688Z,3.69
2019-02-05T11:24:13.680Z,3.73
2019-02-05T11:25:13.678Z,3.83
2019-02-05T11:26:13.660Z,3.75
2019-02-05T11:27:13.652Z,3.69
2019-02-05T11:28:13.634Z,3.69
2019-02-05T11:29:13.634Z,3.86
2019-02-05T11:30:20.419Z,3.84
2019-02-05T11:31:14.612Z,3.79
2019-02-05T11:32:13.593Z,3.87
2019-02-05T11:33:13.586Z,3.79
2019-02-05T11:34:13.576Z,3.79
2019-02-05T11:35:13.564Z,3.79
2019-02-05T11:36:13.551Z,3.78
2019-02-05T11:37:13.543Z,3.80
2019-02-05T11:38:13.526Z,3.79
2019-02-05T11:39:13.516Z,3.83
2019-02-05T11:40:13.507Z,3.83
2019-02-05T11:41:13.791Z,3.90
2019-02-05T11:42:13.494Z,3.84
2019-02-05T11:43:13.519Z,3.90
2019-02-05T11:44:13.464Z,3.93
2019-02-05T11:45:13.460Z,3.90
2019-02-05T11:46:13.437Z,3.91
2019-02-05T11:47:13.459Z,3.93
2019-02-05T11:48:13.424Z,3.96
2019-02-05T11:49:13.418Z,3.90
2019-02-05T11:50:13.406Z,3.93
2019-02-05T11:51:13.387Z,3.93
2019-02-05T11:52:13.384Z,3.93
2019-02-05T11:53:13.373Z,3.93
2019-02-05T11:54:13.359Z,3.84
2019-02-05T11:55:13.355Z,3.91
2019-02-05T11:56:13.353Z,3.93
2019-02-05T11:57:13.327Z,3.91
2019-02-05T11:58:13.325Z,3.91
2019-02-05T11:59:13.310Z,3.86
2019-02-05T12:00:13.300Z,3.86
2019-02-05T12:01:13.295Z,3.83
2019-02-05T12:02:13.273Z,3.87
2019-02-05T12:03:13.270Z,3.93
2019-02-05T12:04:13.252Z,3.96
2019-02-05T12:05:13.244Z,3.96
2019-02-05T12:06:13.234Z,3.94
2019-02-05T12:07:13.235Z,3.97
2019-02-05T12:08:13.211Z,3.94
2019-02-05T12:09:13.196Z,3.98
2019-02-05T12:10:13.186Z,3.93
2019-02-05T12:11:13.174Z,3.98
2019-02-05T12:12:13.176Z,4.05
2019-02-05T12:13:13.209Z,4.08
2019-02-05T12:14:13.140Z,4.12
2019-02-05T12:15:13.177Z,4.08
2019-02-05T12:16:13.127Z,4.11
2019-02-05T12:17:13.117Z,4.15
2019-02-05T12:18:13.109Z,4.15
2019-02-05T12:19:13.128Z,4.11
2019-02-05T12:20:13.074Z,4.06
2019-02-05T12:21:13.065Z,4.12
2019-02-05T12:22:13.073Z,4.09
2019-02-05T12:23:13.055Z,4.02
2019-02-05T12:24:13.049Z,4.08
2019-02-05T12:25:13.024Z,4.11
2019-02-05T12:26:13.012Z,4.11
2019-02-05T12:27:12.998Z,4.11
2019-02-05T12:28:12.987Z,4.08
2019-02-05T12:29:12.980Z,4.11
2019-02-05T12:30:12.997Z,4.06
2019-02-05T12:31:12.962Z,4.14
2019-02-05T12:32:12.950Z,4.15
2019-02-05T12:33:12.942Z,4.05
2019-02-05T12:34:12.925Z,4.14
2019-02-05T12:35:12.918Z,4.14
2019-02-05T12:36:12.907Z,4.11
2019-02-05T12:37:12.888Z,4.09
2019-02-05T12:38:12.880Z,4.08
2019-02-05T12:39:12.872Z,4.15
2019-02-05T12:40:12.868Z,4.15
2019-02-05T12:41:12.868Z,4.11
2019-02-05T12:42:12.834Z,4.11
2019-02-05T12:43:12.822Z,4.14
2019-02-05T12:44:12.814Z,4.14
2019-02-05T12:45:12.804Z,4.20
2019-02-05T12:46:12.795Z,4.20
2019-02-05T12:47:12.801Z,4.12
2019-02-05T12:48:12.769Z,4.15
2019-02-05T12:49:14.933Z,4.24
2019-02-05T12:50:12.753Z,4.24
2019-02-05T12:51:12.751Z,4.20
2019-02-05T12:52:12.738Z,4.29
2019-02-05T12:53:12.733Z,4.24
2019-02-05T12:54:12.714Z,4.27
2019-02-05T12:55:15.862Z,4.36
2019-02-05T12:56:12.696Z,4.30
2019-02-05T12:57:12.693Z,4.34
2019-02-05T12:58:12.667Z,4.27
2019-02-05T12:59:12.663Z,4.34
2019-02-05T13:00:12.646Z,4.34
2019-02-05T13:01:12.631Z,4.20
2019-02-05T13:02:12.628Z,4.30
2019-02-05T13:03:12.622Z,4.29
2019-02-05T13:04:12.612Z,4.24
2019-02-05T13:05:12.602Z,4.26
2019-02-05T13:06:12.579Z,4.30
2019-02-05T13:07:12.575Z,4.27
2019-02-05T13:08:12.557Z,4.32
2019-02-05T13:09:12.551Z,4.20
2019-02-05T13:10:12.541Z,4.23
2019-02-05T13:11:12.533Z,4.32
2019-02-05T13:12:12.524Z,4.30
2019-02-05T13:13:12.518Z,4.23
2019-02-05T13:14:12.498Z,4.26
2019-02-05T13:15:12.491Z,4.32
2019-02-05T13:16:12.482Z,4.24
2019-02-05T13:17:12.476Z,4.32
2019-02-05T13:18:12.457Z,4.26